»·PEaware :: N4306H KSNA-KAVX

N4306H :: KSNA-KAVX

FLIGHT INFORMATION

Flight Status: Arrived
Operator: Privately registered:
United States
More flights under this callsign
Pilot: Lauro R. (32390)
Aircraft: MOONEY M-20 201 202 205 220 ATS MSE
(M20P)
More flights by this aircraft type
Origin: KSNA John Wayne-Orange Co
United States
Destination: KAVX Catalina
United States
More flights between these airports :: More routes between these airports
Route: SLI V23 SXC
File this flight plan on PilotEdge
Remarks:
Altitude:
(Current/Filed)
4,000ft
Speed:
(Current/Filed)
150kts
Departed: 19-Nov-20 01:29 PM
Arrived: 19-Nov-20 02:16 PM
Distance/Time
Traveled:
32nm/0:46
Distance/Time
To Go:
Arrived

Flight Plot

Page will automatically refresh every two minutes.

Flight plan parsing failed; only flown route is shown


Map Options




Map Legend


Flown Route
Filed Route
Departure Airport
Arrival Airport
Navaid (VOR, NDB)
Fix

Horizontal Profiles

Position Reports

Time Latitude Longitude Heading Altitude Ground
Speed
19-Nov-20 13:13 33.667173 -117.872132 225 59ft 0kts
19-Nov-20 13:14 33.667173 -117.872132 225 59ft 0kts
19-Nov-20 13:15 33.667173 -117.872132 225 59ft 0kts
19-Nov-20 13:16 33.667173 -117.872132 225 59ft 0kts
19-Nov-20 13:17 33.667173 -117.872132 225 59ft 0kts
19-Nov-20 13:19 33.667173 -117.872132 225 59ft 0kts
19-Nov-20 13:19 33.667173 -117.872132 225 59ft 0kts
19-Nov-20 13:20 33.667173 -117.872132 225 59ft 0kts
19-Nov-20 13:21 33.667173 -117.872132 225 59ft 0kts
19-Nov-20 13:22 33.667173 -117.872132 225 59ft 0kts
19-Nov-20 13:23 33.668004 -117.872075 40 59ft 15kts
19-Nov-20 13:24 33.671450 -117.868589 34 59ft 9kts
19-Nov-20 13:25 33.673593 -117.867039 329 59ft 8kts
19-Nov-20 13:26 33.678024 -117.864605 27 59ft 21kts
19-Nov-20 13:27 33.679961 -117.863629 299 59ft 0kts
19-Nov-20 13:28 33.679119 -117.864803 205 59ft 43kts
19-Nov-20 13:29 33.658916 -117.883778 223 483ft 119kts
19-Nov-20 13:30 33.631762 -117.914073 223 1017ft 142kts
19-Nov-20 13:31 33.602330 -117.946865 223 1621ft 145kts
19-Nov-20 13:32 33.572574 -117.980000 223 2219ft 146kts
19-Nov-20 13:33 33.542873 -118.013054 223 2817ft 145kts
19-Nov-20 13:34 33.513430 -118.045801 223 3414ft 143kts
19-Nov-20 13:35 33.484124 -118.078387 223 3853ft 152kts
19-Nov-20 13:36 33.450603 -118.115656 223 3855ft 173kts
19-Nov-20 13:37 33.414598 -118.155670 223 3853ft 179kts
19-Nov-20 13:38 33.377783 -118.196569 223 3853ft 181kts
19-Nov-20 13:39 33.340747 -118.237685 223 3853ft 181kts
19-Nov-20 13:40 33.308804 -118.283553 241 3849ft 182kts
19-Nov-20 13:41 33.301202 -118.339818 300 3856ft 181kts
19-Nov-20 13:42 33.335850 -118.379793 321 3825ft 148kts
19-Nov-20 13:43 33.363551 -118.409912 316 3752ft 130kts
19-Nov-20 13:44 33.376010 -118.445012 261 3841ft 108kts
19-Nov-20 13:45 33.370102 -118.481453 256 3854ft 115kts
19-Nov-20 13:46 33.344960 -118.486860 113 3853ft 118kts
19-Nov-20 13:47 33.364883 -118.460950 27 3854ft 120kts
19-Nov-20 13:48 33.389934 -118.468087 265 3853ft 120kts
19-Nov-20 13:49 33.364005 -118.490621 206 3853ft 121kts
19-Nov-20 13:50 33.333034 -118.500564 141 3852ft 121kts
19-Nov-20 13:51 33.335139 -118.462844 73 3851ft 119kts
19-Nov-20 13:52 33.352651 -118.434874 24 3852ft 106kts
19-Nov-20 13:53 33.378712 -118.420682 15 3848ft 100kts
19-Nov-20 13:54 33.383506 -118.441529 204 3856ft 99kts
19-Nov-20 13:55 33.358009 -118.455640 205 3854ft 102kts
19-Nov-20 13:56 33.336678 -118.448720 83 3853ft 103kts
19-Nov-20 13:57 33.359048 -118.429234 26 3853ft 104kts
19-Nov-20 13:58 33.386430 -118.418343 8 3853ft 105kts
19-Nov-20 13:59 33.416457 -118.413812 7 3693ft 119kts
19-Nov-20 14:00 33.449436 -118.408962 7 3291ft 119kts
19-Nov-20 14:01 33.479579 -118.406042 4 3250ft 100kts
19-Nov-20 14:02 33.506979 -118.403864 4 3256ft 102kts
19-Nov-20 14:03 33.535605 -118.408985 330 3254ft 109kts
19-Nov-20 14:04 33.560082 -118.430927 320 3253ft 110kts
19-Nov-20 14:05 33.583323 -118.455038 319 3253ft 111kts
19-Nov-20 14:06 33.608427 -118.465621 54 3258ft 110kts
19-Nov-20 14:07 33.595119 -118.436639 138 3254ft 111kts
19-Nov-20 14:08 33.572112 -118.412056 139 3253ft 111kts
19-Nov-20 14:09 33.541972 -118.402296 180 3017ft 126kts
19-Nov-20 14:10 33.505420 -118.404163 184 2528ft 134kts
19-Nov-20 14:11 33.469885 -118.406881 184 2150ft 114kts
19-Nov-20 14:12 33.441618 -118.409157 172 2119ft 92kts
19-Nov-20 14:13 33.415773 -118.404610 199 1922ft 99kts
19-Nov-20 14:14 33.398692 -118.422788 173 1477ft 45kts
19-Nov-20 14:15 33.399115 -118.423406 34 1415ft 0kts
19-Nov-20 14:16 33.404378 -118.414719 262 1539ft 0kts
19-Nov-20 14:17 33.404378 -118.414719 262 1539ft 0kts
19-Nov-20 14:18 33.404378 -118.414719 262 1539ft 0kts
19-Nov-20 14:19 33.404378 -118.414719 262 1539ft 0kts
19-Nov-20 14:20 33.404378 -118.414719 262 1539ft 0kts
19-Nov-20 14:21 33.404378 -118.414719 262 1539ft 0kts
19-Nov-20 14:22 33.404378 -118.414719 262 1539ft 0kts

Navigation Log

Ident Type
Flight plan parsing failed, navigation log unavailable